sensor_id;sensor_type;location;lat;lon;timestamp;P1;durP1;ratioP1;P2;durP2;ratioP2
14778;SDS011;7481;53.750;10.570;2023-03-11T00:01:06;11.93;;;7.63;;
14778;SDS011;7481;53.750;10.570;2023-03-11T00:03:55;12.20;;;7.60;;
14778;SDS011;7481;53.750;10.570;2023-03-11T00:06:43;15.57;;;8.70;;
14778;SDS011;7481;53.750;10.570;2023-03-11T00:09:30;12.87;;;8.20;;
14778;SDS011;7481;53.750;10.570;2023-03-11T00:12:18;11.33;;;8.00;;
14778;SDS011;7481;53.750;10.570;2023-03-11T00:15:05;12.57;;;8.77;;
14778;SDS011;7481;53.750;10.570;2023-03-11T00:17:53;13.20;;;8.50;;
14778;SDS011;7481;53.750;10.570;2023-03-11T00:20:41;13.53;;;8.83;;
14778;SDS011;7481;53.750;10.570;2023-03-11T00:23:29;13.03;;;8.63;;
14778;SDS011;7481;53.750;10.570;2023-03-11T00:26:17;12.17;;;8.37;;
14778;SDS011;7481;53.750;10.570;2023-03-11T00:29:05;14.77;;;9.47;;
14778;SDS011;7481;53.750;10.570;2023-03-11T00:31:52;13.77;;;8.70;;
14778;SDS011;7481;53.750;10.570;2023-03-11T00:34:40;13.93;;;8.90;;
14778;SDS011;7481;53.750;10.570;2023-03-11T00:37:27;14.50;;;9.63;;
14778;SDS011;7481;53.750;10.570;2023-03-11T00:40:16;12.63;;;8.70;;
14778;SDS011;7481;53.750;10.570;2023-03-11T00:43:03;12.47;;;8.03;;
14778;SDS011;7481;53.750;10.570;2023-03-11T00:45:51;11.53;;;8.20;;
14778;SDS011;7481;53.750;10.570;2023-03-11T00:48:38;14.37;;;7.87;;
14778;SDS011;7481;53.750;10.570;2023-03-11T00:51:26;9.93;;;7.93;;
14778;SDS011;7481;53.750;10.570;2023-03-11T00:54:13;15.30;;;9.13;;
14778;SDS011;7481;53.750;10.570;2023-03-11T00:57:01;16.10;;;9.60;;
14778;SDS011;7481;53.750;10.570;2023-03-11T00:59:48;11.93;;;8.17;;
14778;SDS011;7481;53.750;10.570;2023-03-11T01:02:36;13.33;;;8.13;;
14778;SDS011;7481;53.750;10.570;2023-03-11T01:05:25;12.80;;;8.40;;
14778;SDS011;7481;53.750;10.570;2023-03-11T01:08:12;13.33;;;8.63;;
14778;SDS011;7481;53.750;10.570;2023-03-11T01:11:00;11.30;;;8.50;;
14778;SDS011;7481;53.750;10.570;2023-03-11T01:13:48;12.10;;;8.07;;
14778;SDS011;7481;53.750;10.570;2023-03-11T01:16:35;11.93;;;8.53;;
14778;SDS011;7481;53.750;10.570;2023-03-11T01:19:22;11.43;;;8.37;;
14778;SDS011;7481;53.750;10.570;2023-03-11T01:22:10;12.33;;;8.33;;
14778;SDS011;7481;53.750;10.570;2023-03-11T01:24:57;16.50;;;8.97;;
14778;SDS011;7481;53.750;10.570;2023-03-11T01:27:45;13.50;;;8.63;;
14778;SDS011;7481;53.750;10.570;2023-03-11T01:30:32;14.00;;;8.87;;
14778;SDS011;7481;53.750;10.570;2023-03-11T01:33:20;12.73;;;8.40;;
14778;SDS011;7481;53.750;10.570;2023-03-11T01:36:07;13.53;;;9.60;;
14778;SDS011;7481;53.750;10.570;2023-03-11T01:38:55;12.73;;;7.97;;
14778;SDS011;7481;53.750;10.570;2023-03-11T01:41:42;12.37;;;8.07;;
14778;SDS011;7481;53.750;10.570;2023-03-11T01:44:30;13.60;;;9.37;;
14778;SDS011;7481;53.750;10.570;2023-03-11T01:47:23;12.33;;;8.63;;
14778;SDS011;7481;53.750;10.570;2023-03-11T01:50:18;15.23;;;9.10;;
14778;SDS011;7481;53.750;10.570;2023-03-11T01:53:05;11.93;;;8.23;;
14778;SDS011;7481;53.750;10.570;2023-03-11T01:55:53;12.00;;;8.67;;
14778;SDS011;7481;53.750;10.570;2023-03-11T01:58:41;13.87;;;8.90;;
14778;SDS011;7481;53.750;10.570;2023-03-11T02:01:30;12.83;;;9.10;;
14778;SDS011;7481;53.750;10.570;2023-03-11T02:04:17;17.00;;;9.20;;
14778;SDS011;7481;53.750;10.570;2023-03-11T02:07:06;13.87;;;9.50;;
14778;SDS011;7481;53.750;10.570;2023-03-11T02:09:54;14.33;;;10.70;;
14778;SDS011;7481;53.750;10.570;2023-03-11T02:12:42;15.43;;;10.47;;
14778;SDS011;7481;53.750;10.570;2023-03-11T02:15:29;15.30;;;10.67;;
14778;SDS011;7481;53.750;10.570;2023-03-11T02:18:18;16.17;;;11.33;;
14778;SDS011;7481;53.750;10.570;2023-03-11T02:21:24;18.13;;;11.63;;
14778;SDS011;7481;53.750;10.570;2023-03-11T02:29:47;15.73;;;10.27;;
14778;SDS011;7481;53.750;10.570;2023-03-11T02:32:35;15.50;;;10.30;;
14778;SDS011;7481;53.750;10.570;2023-03-11T02:35:23;15.67;;;9.97;;
14778;SDS011;7481;53.750;10.570;2023-03-11T02:38:10;14.33;;;10.30;;
14778;SDS011;7481;53.750;10.570;2023-03-11T02:41:00;14.80;;;9.73;;
14778;SDS011;7481;53.750;10.570;2023-03-11T02:43:48;13.97;;;8.87;;
14778;SDS011;7481;53.750;10.570;2023-03-11T02:46:36;14.07;;;9.00;;
14778;SDS011;7481;53.750;10.570;2023-03-11T02:49:25;14.67;;;8.83;;
14778;SDS011;7481;53.750;10.570;2023-03-11T02:52:12;15.23;;;9.70;;
14778;SDS011;7481;53.750;10.570;2023-03-11T02:55:00;14.47;;;8.83;;
14778;SDS011;7481;53.750;10.570;2023-03-11T02:57:47;13.07;;;8.80;;
14778;SDS011;7481;53.750;10.570;2023-03-11T03:00:35;12.83;;;8.27;;
14778;SDS011;7481;53.750;10.570;2023-03-11T03:03:22;10.90;;;8.13;;
14778;SDS011;7481;53.750;10.570;2023-03-11T03:06:10;12.83;;;8.97;;
14778;SDS011;7481;53.750;10.570;2023-03-11T03:08:58;13.43;;;9.03;;
14778;SDS011;7481;53.750;10.570;2023-03-11T03:11:45;10.83;;;8.33;;
14778;SDS011;7481;53.750;10.570;2023-03-11T03:14:33;16.30;;;9.90;;
14778;SDS011;7481;53.750;10.570;2023-03-11T03:17:20;13.33;;;8.63;;
14778;SDS011;7481;53.750;10.570;2023-03-11T03:20:08;13.47;;;8.80;;
14778;SDS011;7481;53.750;10.570;2023-03-11T03:22:57;12.53;;;9.17;;
14778;SDS011;7481;53.750;10.570;2023-03-11T03:25:44;13.03;;;9.47;;
14778;SDS011;7481;53.750;10.570;2023-03-11T03:28:31;13.47;;;9.87;;
14778;SDS011;7481;53.750;10.570;2023-03-11T03:31:19;13.60;;;9.67;;
14778;SDS011;7481;53.750;10.570;2023-03-11T03:34:06;14.67;;;10.00;;
14778;SDS011;7481;53.750;10.570;2023-03-11T03:36:54;18.10;;;10.00;;
14778;SDS011;7481;53.750;10.570;2023-03-11T03:39:41;13.80;;;9.10;;
14778;SDS011;7481;53.750;10.570;2023-03-11T03:42:28;14.57;;;9.80;;
14778;SDS011;7481;53.750;10.570;2023-03-11T03:45:17;14.47;;;9.30;;
14778;SDS011;7481;53.750;10.570;2023-03-11T03:48:04;14.47;;;9.73;;
14778;SDS011;7481;53.750;10.570;2023-03-11T03:50:52;15.90;;;10.57;;
14778;SDS011;7481;53.750;10.570;2023-03-11T03:53:40;14.50;;;9.60;;
14778;SDS011;7481;53.750;10.570;2023-03-11T03:56:27;16.30;;;10.77;;
14778;SDS011;7481;53.750;10.570;2023-03-11T03:59:14;17.03;;;10.60;;
14778;SDS011;7481;53.750;10.570;2023-03-11T04:02:02;16.50;;;10.60;;
14778;SDS011;7481;53.750;10.570;2023-03-11T04:04:50;15.50;;;10.30;;
14778;SDS011;7481;53.750;10.570;2023-03-11T04:07:37;18.77;;;11.17;;
14778;SDS011;7481;53.750;10.570;2023-03-11T04:10:24;14.83;;;10.67;;
14778;SDS011;7481;53.750;10.570;2023-03-11T04:13:12;17.60;;;10.67;;
14778;SDS011;7481;53.750;10.570;2023-03-11T04:16:01;18.37;;;12.20;;
14778;SDS011;7481;53.750;10.570;2023-03-11T04:18:49;17.97;;;11.10;;
14778;SDS011;7481;53.750;10.570;2023-03-11T04:21:36;19.73;;;11.60;;
14778;SDS011;7481;53.750;10.570;2023-03-11T04:24:24;17.73;;;11.40;;
14778;SDS011;7481;53.750;10.570;2023-03-11T04:27:11;16.80;;;11.30;;
14778;SDS011;7481;53.750;10.570;2023-03-11T04:29:58;18.73;;;11.67;;
14778;SDS011;7481;53.750;10.570;2023-03-11T04:32:46;17.33;;;11.30;;
14778;SDS011;7481;53.750;10.570;2023-03-11T04:35:33;16.30;;;10.73;;
14778;SDS011;7481;53.750;10.570;2023-03-11T04:38:20;17.23;;;11.57;;
14778;SDS011;7481;53.750;10.570;2023-03-11T04:41:08;16.80;;;11.00;;
14778;SDS011;7481;53.750;10.570;2023-03-11T04:43:55;14.77;;;10.40;;
14778;SDS011;7481;53.750;10.570;2023-03-11T04:46:43;15.03;;;10.50;;
14778;SDS011;7481;53.750;10.570;2023-03-11T04:49:30;14.47;;;9.53;;
14778;SDS011;7481;53.750;10.570;2023-03-11T04:52:17;16.23;;;9.73;;
14778;SDS011;7481;53.750;10.570;2023-03-11T04:55:05;14.27;;;9.83;;
14778;SDS011;7481;53.750;10.570;2023-03-11T04:57:52;13.80;;;10.37;;
14778;SDS011;7481;53.750;10.570;2023-03-11T05:00:40;16.90;;;9.70;;
14778;SDS011;7481;53.750;10.570;2023-03-11T05:03:27;13.27;;;9.53;;
14778;SDS011;7481;53.750;10.570;2023-03-11T05:06:15;16.47;;;9.73;;
14778;SDS011;7481;53.750;10.570;2023-03-11T05:09:02;17.13;;;10.00;;
14778;SDS011;7481;53.750;10.570;2023-03-11T05:11:50;16.43;;;10.10;;
14778;SDS011;7481;53.750;10.570;2023-03-11T05:14:37;15.43;;;9.63;;
14778;SDS011;7481;53.750;10.570;2023-03-11T05:17:26;16.83;;;10.40;;
14778;SDS011;7481;53.750;10.570;2023-03-11T05:20:14;14.63;;;9.87;;
14778;SDS011;7481;53.750;10.570;2023-03-11T05:23:02;15.33;;;9.97;;
14778;SDS011;7481;53.750;10.570;2023-03-11T05:25:49;15.33;;;9.93;;
14778;SDS011;7481;53.750;10.570;2023-03-11T05:28:37;15.63;;;10.00;;
14778;SDS011;7481;53.750;10.570;2023-03-11T05:31:24;16.00;;;9.93;;
14778;SDS011;7481;53.750;10.570;2023-03-11T05:34:12;14.93;;;9.87;;
14778;SDS011;7481;53.750;10.570;2023-03-11T05:36:59;16.00;;;9.57;;
14778;SDS011;7481;53.750;10.570;2023-03-11T05:39:50;15.23;;;9.03;;
14778;SDS011;7481;53.750;10.570;2023-03-11T05:42:37;13.97;;;9.03;;
14778;SDS011;7481;53.750;10.570;2023-03-11T05:45:26;14.43;;;9.27;;
14778;SDS011;7481;53.750;10.570;2023-03-11T05:48:14;14.80;;;9.37;;
14778;SDS011;7481;53.750;10.570;2023-03-11T05:51:05;14.73;;;9.40;;
14778;SDS011;7481;53.750;10.570;2023-03-11T05:53:53;15.27;;;9.53;;
14778;SDS011;7481;53.750;10.570;2023-03-11T05:56:41;13.60;;;8.90;;
14778;SDS011;7481;53.750;10.570;2023-03-11T05:59:28;12.03;;;8.70;;
14778;SDS011;7481;53.750;10.570;2023-03-11T06:02:17;14.07;;;8.27;;
14778;SDS011;7481;53.750;10.570;2023-03-11T06:05:06;12.50;;;8.60;;
14778;SDS011;7481;53.750;10.570;2023-03-11T06:07:57;14.03;;;8.90;;
14778;SDS011;7481;53.750;10.570;2023-03-11T06:10:45;14.07;;;8.67;;
14778;SDS011;7481;53.750;10.570;2023-03-11T06:13:35;14.63;;;9.03;;
14778;SDS011;7481;53.750;10.570;2023-03-11T06:16:23;13.33;;;8.13;;
14778;SDS011;7481;53.750;10.570;2023-03-11T06:19:10;12.80;;;8.87;;
14778;SDS011;7481;53.750;10.570;2023-03-11T06:21:58;15.23;;;8.67;;
14778;SDS011;7481;53.750;10.570;2023-03-11T06:24:45;15.10;;;8.93;;
14778;SDS011;7481;53.750;10.570;2023-03-11T06:27:32;13.60;;;9.13;;
14778;SDS011;7481;53.750;10.570;2023-03-11T06:30:20;13.47;;;8.37;;
14778;SDS011;7481;53.750;10.570;2023-03-11T06:33:07;10.50;;;7.73;;
14778;SDS011;7481;53.750;10.570;2023-03-11T06:35:56;14.17;;;8.43;;
14778;SDS011;7481;53.750;10.570;2023-03-11T06:38:43;16.20;;;8.70;;
14778;SDS011;7481;53.750;10.570;2023-03-11T06:41:35;14.57;;;8.50;;
14778;SDS011;7481;53.750;10.570;2023-03-11T06:44:22;15.13;;;8.63;;
14778;SDS011;7481;53.750;10.570;2023-03-11T06:47:10;14.17;;;8.57;;
14778;SDS011;7481;53.750;10.570;2023-03-11T06:49:58;12.33;;;7.87;;
14778;SDS011;7481;53.750;10.570;2023-03-11T06:52:51;14.13;;;8.53;;
14778;SDS011;7481;53.750;10.570;2023-03-11T06:55:38;14.20;;;8.87;;
14778;SDS011;7481;53.750;10.570;2023-03-11T06:58:26;13.33;;;7.63;;
14778;SDS011;7481;53.750;10.570;2023-03-11T07:01:23;12.73;;;8.17;;
14778;SDS011;7481;53.750;10.570;2023-03-11T07:04:11;12.97;;;8.30;;
14778;SDS011;7481;53.750;10.570;2023-03-11T07:06:58;14.13;;;8.00;;
14778;SDS011;7481;53.750;10.570;2023-03-11T07:09:46;13.10;;;8.47;;
14778;SDS011;7481;53.750;10.570;2023-03-11T07:12:33;11.30;;;7.77;;
14778;SDS011;7481;53.750;10.570;2023-03-11T07:15:20;13.53;;;8.30;;
14778;SDS011;7481;53.750;10.570;2023-03-11T07:18:08;12.00;;;8.20;;
14778;SDS011;7481;53.750;10.570;2023-03-11T07:20:55;13.77;;;8.10;;
14778;SDS011;7481;53.750;10.570;2023-03-11T07:23:43;13.63;;;8.40;;
14778;SDS011;7481;53.750;10.570;2023-03-11T07:26:31;12.87;;;7.37;;
14778;SDS011;7481;53.750;10.570;2023-03-11T07:29:19;13.27;;;7.93;;
14778;SDS011;7481;53.750;10.570;2023-03-11T07:32:07;12.60;;;8.10;;
14778;SDS011;7481;53.750;10.570;2023-03-11T07:34:55;12.70;;;8.07;;
14778;SDS011;7481;53.750;10.570;2023-03-11T07:37:42;12.73;;;8.13;;
14778;SDS011;7481;53.750;10.570;2023-03-11T07:40:29;12.43;;;8.00;;
14778;SDS011;7481;53.750;10.570;2023-03-11T07:43:17;10.70;;;7.97;;
14778;SDS011;7481;53.750;10.570;2023-03-11T07:46:06;12.87;;;7.57;;
14778;SDS011;7481;53.750;10.570;2023-03-11T07:48:54;13.93;;;7.53;;
14778;SDS011;7481;53.750;10.570;2023-03-11T07:51:41;10.73;;;7.27;;
14778;SDS011;7481;53.750;10.570;2023-03-11T07:54:30;12.10;;;7.73;;
14778;SDS011;7481;53.750;10.570;2023-03-11T07:57:17;11.07;;;6.83;;
14778;SDS011;7481;53.750;10.570;2023-03-11T08:00:05;11.37;;;6.60;;
14778;SDS011;7481;53.750;10.570;2023-03-11T08:02:52;9.47;;;6.67;;
14778;SDS011;7481;53.750;10.570;2023-03-11T08:05:40;9.97;;;6.77;;
14778;SDS011;7481;53.750;10.570;2023-03-11T08:08:27;9.43;;;6.43;;
14778;SDS011;7481;53.750;10.570;2023-03-11T08:11:15;9.63;;;6.40;;
14778;SDS011;7481;53.750;10.570;2023-03-11T08:14:02;9.27;;;5.97;;
14778;SDS011;7481;53.750;10.570;2023-03-11T08:16:50;9.93;;;6.77;;
14778;SDS011;7481;53.750;10.570;2023-03-11T08:19:37;9.20;;;6.63;;
14778;SDS011;7481;53.750;10.570;2023-03-11T08:22:24;8.60;;;5.47;;
14778;SDS011;7481;53.750;10.570;2023-03-11T08:25:12;8.83;;;6.27;;
14778;SDS011;7481;53.750;10.570;2023-03-11T08:27:59;8.90;;;6.33;;
14778;SDS011;7481;53.750;10.570;2023-03-11T08:30:47;7.40;;;4.90;;
14778;SDS011;7481;53.750;10.570;2023-03-11T08:33:34;7.70;;;5.37;;
14778;SDS011;7481;53.750;10.570;2023-03-11T08:36:22;7.63;;;6.00;;
14778;SDS011;7481;53.750;10.570;2023-03-11T08:39:09;7.17;;;4.70;;
14778;SDS011;7481;53.750;10.570;2023-03-11T08:41:57;6.77;;;4.70;;
14778;SDS011;7481;53.750;10.570;2023-03-11T08:44:45;6.43;;;5.00;;
14778;SDS011;7481;53.750;10.570;2023-03-11T08:47:33;6.63;;;4.77;;
14778;SDS011;7481;53.750;10.570;2023-03-11T08:50:21;6.70;;;4.13;;
14778;SDS011;7481;53.750;10.570;2023-03-11T08:53:09;5.43;;;4.40;;
14778;SDS011;7481;53.750;10.570;2023-03-11T08:55:56;6.47;;;3.97;;
14778;SDS011;7481;53.750;10.570;2023-03-11T08:58:44;5.97;;;4.30;;
14778;SDS011;7481;53.750;10.570;2023-03-11T09:01:32;5.13;;;4.27;;
14778;SDS011;7481;53.750;10.570;2023-03-11T09:04:19;6.33;;;4.60;;
14778;SDS011;7481;53.750;10.570;2023-03-11T09:07:06;7.70;;;4.97;;
14778;SDS011;7481;53.750;10.570;2023-03-11T09:09:54;6.93;;;4.30;;
14778;SDS011;7481;53.750;10.570;2023-03-11T09:12:42;7.00;;;4.77;;
14778;SDS011;7481;53.750;10.570;2023-03-11T09:15:30;6.47;;;4.63;;
14778;SDS011;7481;53.750;10.570;2023-03-11T09:18:17;4.40;;;3.93;;
14778;SDS011;7481;53.750;10.570;2023-03-11T09:21:05;5.17;;;4.10;;
14778;SDS011;7481;53.750;10.570;2023-03-11T09:23:52;3.57;;;3.27;;
14778;SDS011;7481;53.750;10.570;2023-03-11T09:26:39;6.33;;;3.90;;
14778;SDS011;7481;53.750;10.570;2023-03-11T09:29:27;4.20;;;3.00;;
14778;SDS011;7481;53.750;10.570;2023-03-11T09:32:15;5.20;;;3.47;;
14778;SDS011;7481;53.750;10.570;2023-03-11T09:35:03;4.27;;;3.60;;
14778;SDS011;7481;53.750;10.570;2023-03-11T09:37:51;4.43;;;3.17;;
14778;SDS011;7481;53.750;10.570;2023-03-11T09:40:44;3.93;;;3.57;;
14778;SDS011;7481;53.750;10.570;2023-03-11T09:43:44;5.20;;;3.90;;
14778;SDS011;7481;53.750;10.570;2023-03-11T10:01:37;4.07;;;3.67;;
14778;SDS011;7481;53.750;10.570;2023-03-11T10:04:32;4.53;;;3.53;;
14778;SDS011;7481;53.750;10.570;2023-03-11T10:07:24;4.10;;;3.37;;
14778;SDS011;7481;53.750;10.570;2023-03-11T10:10:12;3.60;;;3.10;;
14778;SDS011;7481;53.750;10.570;2023-03-11T10:15:56;4.10;;;3.20;;
14778;SDS011;7481;53.750;10.570;2023-03-11T10:18:56;4.43;;;3.10;;
14778;SDS011;7481;53.750;10.570;2023-03-11T10:24:43;4.07;;;2.80;;
14778;SDS011;7481;53.750;10.570;2023-03-11T10:27:38;3.73;;;3.03;;
14778;SDS011;7481;53.750;10.570;2023-03-11T10:30:30;3.80;;;3.20;;
14778;SDS011;7481;53.750;10.570;2023-03-11T10:33:26;3.20;;;2.90;;
14778;SDS011;7481;53.750;10.570;2023-03-11T10:36:20;3.17;;;2.80;;
14778;SDS011;7481;53.750;10.570;2023-03-11T10:39:09;4.43;;;2.90;;
14778;SDS011;7481;53.750;10.570;2023-03-11T10:42:01;5.53;;;2.97;;
14778;SDS011;7481;53.750;10.570;2023-03-11T10:44:49;4.60;;;3.30;;
14778;SDS011;7481;53.750;10.570;2023-03-11T10:47:38;4.87;;;3.77;;
14778;SDS011;7481;53.750;10.570;2023-03-11T10:50:25;5.67;;;3.10;;
14778;SDS011;7481;53.750;10.570;2023-03-11T10:53:14;6.40;;;5.47;;
14778;SDS011;7481;53.750;10.570;2023-03-11T10:56:02;4.17;;;3.40;;
14778;SDS011;7481;53.750;10.570;2023-03-11T10:58:49;3.93;;;3.07;;
14778;SDS011;7481;53.750;10.570;2023-03-11T11:01:37;9.23;;;8.20;;
14778;SDS011;7481;53.750;10.570;2023-03-11T11:04:26;7.43;;;3.20;;
14778;SDS011;7481;53.750;10.570;2023-03-11T11:10:21;4.73;;;2.73;;
14778;SDS011;7481;53.750;10.570;2023-03-11T11:16:00;4.53;;;3.27;;
14778;SDS011;7481;53.750;10.570;2023-03-11T11:21:48;6.13;;;3.10;;
14778;SDS011;7481;53.750;10.570;2023-03-11T11:24:37;6.03;;;3.60;;
14778;SDS011;7481;53.750;10.570;2023-03-11T11:27:29;5.47;;;3.00;;
14778;SDS011;7481;53.750;10.570;2023-03-11T11:30:18;4.47;;;2.70;;
14778;SDS011;7481;53.750;10.570;2023-03-11T11:33:22;4.90;;;2.90;;
14778;SDS011;7481;53.750;10.570;2023-03-11T11:36:11;5.47;;;3.17;;
14778;SDS011;7481;53.750;10.570;2023-03-11T11:39:00;6.30;;;3.03;;
14778;SDS011;7481;53.750;10.570;2023-03-11T11:41:50;6.13;;;3.70;;
14778;SDS011;7481;53.750;10.570;2023-03-11T11:44:38;21.77;;;13.37;;
14778;SDS011;7481;53.750;10.570;2023-03-11T11:47:29;12.30;;;7.40;;
14778;SDS011;7481;53.750;10.570;2023-03-11T11:53:34;4.97;;;3.10;;
14778;SDS011;7481;53.750;10.570;2023-03-11T11:56:23;6.70;;;2.60;;
14778;SDS011;7481;53.750;10.570;2023-03-11T11:59:18;8.43;;;4.70;;
14778;SDS011;7481;53.750;10.570;2023-03-11T12:05:15;10.70;;;4.77;;
14778;SDS011;7481;53.750;10.570;2023-03-11T12:08:08;12.73;;;6.30;;
14778;SDS011;7481;53.750;10.570;2023-03-11T12:11:03;8.50;;;2.77;;
14778;SDS011;7481;53.750;10.570;2023-03-11T12:13:57;6.80;;;4.03;;
14778;SDS011;7481;53.750;10.570;2023-03-11T12:16:58;6.00;;;2.93;;
14778;SDS011;7481;53.750;10.570;2023-03-11T12:19:59;4.13;;;2.00;;
14778;SDS011;7481;53.750;10.570;2023-03-11T12:28:58;3.70;;;2.20;;
14778;SDS011;7481;53.750;10.570;2023-03-11T12:31:50;4.80;;;2.13;;
14778;SDS011;7481;53.750;10.570;2023-03-11T12:34:38;3.50;;;2.20;;
14778;SDS011;7481;53.750;10.570;2023-03-11T12:37:25;3.17;;;1.80;;
14778;SDS011;7481;53.750;10.570;2023-03-11T12:46:19;4.47;;;1.80;;
14778;SDS011;7481;53.750;10.570;2023-03-11T12:49:10;3.00;;;1.90;;
14778;SDS011;7481;53.750;10.570;2023-03-11T12:52:02;4.40;;;2.00;;
14778;SDS011;7481;53.750;10.570;2023-03-11T12:57:49;8.40;;;2.93;;
14778;SDS011;7481;53.750;10.570;2023-03-11T13:03:41;3.50;;;2.50;;
14778;SDS011;7481;53.750;10.570;2023-03-11T13:09:25;10.80;;;5.03;;
14778;SDS011;7481;53.750;10.570;2023-03-11T13:21:00;4.77;;;1.53;;
14778;SDS011;7481;53.750;10.570;2023-03-11T13:23:48;3.37;;;1.97;;
14778;SDS011;7481;53.750;10.570;2023-03-11T13:26:39;8.60;;;3.57;;
14778;SDS011;7481;53.750;10.570;2023-03-11T13:41:32;4.13;;;1.63;;
14778;SDS011;7481;53.750;10.570;2023-03-11T13:47:17;3.53;;;1.30;;
14778;SDS011;7481;53.750;10.570;2023-03-11T13:50:09;2.43;;;1.30;;
14778;SDS011;7481;53.750;10.570;2023-03-11T13:53:00;2.53;;;1.50;;
14778;SDS011;7481;53.750;10.570;2023-03-11T13:55:49;3.30;;;1.47;;
14778;SDS011;7481;53.750;10.570;2023-03-11T13:58:36;3.33;;;1.33;;
14778;SDS011;7481;53.750;10.570;2023-03-11T14:01:23;2.10;;;1.00;;
14778;SDS011;7481;53.750;10.570;2023-03-11T14:04:11;5.13;;;1.67;;
14778;SDS011;7481;53.750;10.570;2023-03-11T14:06:59;4.13;;;1.40;;
14778;SDS011;7481;53.750;10.570;2023-03-11T14:09:46;3.13;;;1.33;;
14778;SDS011;7481;53.750;10.570;2023-03-11T14:12:33;3.97;;;1.50;;
14778;SDS011;7481;53.750;10.570;2023-03-11T14:15:24;3.07;;;1.27;;
14778;SDS011;7481;53.750;10.570;2023-03-11T14:21:18;4.20;;;1.40;;
14778;SDS011;7481;53.750;10.570;2023-03-11T14:24:13;3.93;;;1.10;;
14778;SDS011;7481;53.750;10.570;2023-03-11T14:27:05;2.10;;;0.97;;
14778;SDS011;7481;53.750;10.570;2023-03-11T14:29:53;2.03;;;1.13;;
14778;SDS011;7481;53.750;10.570;2023-03-11T14:32:40;2.00;;;0.80;;
14778;SDS011;7481;53.750;10.570;2023-03-11T14:35:28;2.17;;;1.33;;
14778;SDS011;7481;53.750;10.570;2023-03-11T14:38:26;2.73;;;1.40;;
14778;SDS011;7481;53.750;10.570;2023-03-11T14:41:14;3.83;;;1.27;;
14778;SDS011;7481;53.750;10.570;2023-03-11T14:44:01;0.60;;;0.60;;
14778;SDS011;7481;53.750;10.570;2023-03-11T14:46:49;2.47;;;1.17;;
14778;SDS011;7481;53.750;10.570;2023-03-11T14:49:37;2.80;;;1.03;;
14778;SDS011;7481;53.750;10.570;2023-03-11T14:52:47;5.77;;;1.20;;
14778;SDS011;7481;53.750;10.570;2023-03-11T14:58:39;2.90;;;1.00;;
14778;SDS011;7481;53.750;10.570;2023-03-11T15:01:28;0.90;;;0.80;;
14778;SDS011;7481;53.750;10.570;2023-03-11T15:07:08;2.43;;;1.20;;
14778;SDS011;7481;53.750;10.570;2023-03-11T15:09:55;5.23;;;1.10;;
14778;SDS011;7481;53.750;10.570;2023-03-11T15:12:43;1.63;;;1.00;;
14778;SDS011;7481;53.750;10.570;2023-03-11T15:15:31;3.10;;;0.70;;
14778;SDS011;7481;53.750;10.570;2023-03-11T15:18:23;3.10;;;1.40;;
14778;SDS011;7481;53.750;10.570;2023-03-11T15:21:18;7.13;;;1.50;;
14778;SDS011;7481;53.750;10.570;2023-03-11T15:24:14;1.83;;;1.13;;
14778;SDS011;7481;53.750;10.570;2023-03-11T15:27:05;2.73;;;0.90;;
14778;SDS011;7481;53.750;10.570;2023-03-11T15:29:53;1.37;;;1.10;;
14778;SDS011;7481;53.750;10.570;2023-03-11T15:32:40;3.83;;;1.33;;
14778;SDS011;7481;53.750;10.570;2023-03-11T15:35:29;2.37;;;0.93;;
14778;SDS011;7481;53.750;10.570;2023-03-11T15:38:21;3.37;;;1.60;;
14778;SDS011;7481;53.750;10.570;2023-03-11T15:41:10;3.10;;;1.17;;
14778;SDS011;7481;53.750;10.570;2023-03-11T15:43:58;4.17;;;1.33;;
14778;SDS011;7481;53.750;10.570;2023-03-11T15:46:47;2.03;;;1.10;;
14778;SDS011;7481;53.750;10.570;2023-03-11T15:49:35;5.10;;;1.60;;
14778;SDS011;7481;53.750;10.570;2023-03-11T15:52:22;3.60;;;1.17;;
14778;SDS011;7481;53.750;10.570;2023-03-11T15:55:09;3.83;;;1.13;;
14778;SDS011;7481;53.750;10.570;2023-03-11T15:58:06;3.00;;;1.03;;
14778;SDS011;7481;53.750;10.570;2023-03-11T16:00:55;1.57;;;1.10;;
14778;SDS011;7481;53.750;10.570;2023-03-11T16:03:42;3.40;;;1.37;;
14778;SDS011;7481;53.750;10.570;2023-03-11T16:06:30;2.13;;;1.13;;
14778;SDS011;7481;53.750;10.570;2023-03-11T16:09:17;3.27;;;1.30;;
14778;SDS011;7481;53.750;10.570;2023-03-11T16:12:08;3.63;;;1.20;;
14778;SDS011;7481;53.750;10.570;2023-03-11T16:14:59;2.73;;;1.30;;
14778;SDS011;7481;53.750;10.570;2023-03-11T16:17:47;4.43;;;1.10;;
14778;SDS011;7481;53.750;10.570;2023-03-11T16:20:54;0.90;;;0.70;;
14778;SDS011;7481;53.750;10.570;2023-03-11T16:23:42;4.30;;;0.97;;
14778;SDS011;7481;53.750;10.570;2023-03-11T16:26:37;2.47;;;1.33;;
14778;SDS011;7481;53.750;10.570;2023-03-11T16:29:24;1.70;;;0.80;;
14778;SDS011;7481;53.750;10.570;2023-03-11T16:32:12;5.13;;;1.97;;
14778;SDS011;7481;53.750;10.570;2023-03-11T16:35:00;2.27;;;0.80;;
14778;SDS011;7481;53.750;10.570;2023-03-11T16:37:48;3.23;;;1.13;;
14778;SDS011;7481;53.750;10.570;2023-03-11T16:40:35;1.30;;;1.00;;
14778;SDS011;7481;53.750;10.570;2023-03-11T16:43:23;2.43;;;0.83;;
14778;SDS011;7481;53.750;10.570;2023-03-11T16:46:11;2.53;;;1.40;;
14778;SDS011;7481;53.750;10.570;2023-03-11T16:48:58;3.23;;;1.20;;
14778;SDS011;7481;53.750;10.570;2023-03-11T16:51:46;1.90;;;1.43;;
14778;SDS011;7481;53.750;10.570;2023-03-11T16:54:33;2.27;;;1.10;;
14778;SDS011;7481;53.750;10.570;2023-03-11T16:57:21;1.63;;;1.00;;
14778;SDS011;7481;53.750;10.570;2023-03-11T17:00:08;2.90;;;1.40;;
14778;SDS011;7481;53.750;10.570;2023-03-11T17:02:56;2.77;;;0.97;;
14778;SDS011;7481;53.750;10.570;2023-03-11T17:05:43;2.17;;;1.23;;
14778;SDS011;7481;53.750;10.570;2023-03-11T17:08:31;2.40;;;1.33;;
14778;SDS011;7481;53.750;10.570;2023-03-11T17:11:19;1.53;;;1.20;;
14778;SDS011;7481;53.750;10.570;2023-03-11T17:14:06;2.10;;;1.40;;
14778;SDS011;7481;53.750;10.570;2023-03-11T17:17:02;2.60;;;1.60;;
14778;SDS011;7481;53.750;10.570;2023-03-11T17:19:49;3.20;;;1.60;;
14778;SDS011;7481;53.750;10.570;2023-03-11T17:22:37;5.47;;;2.40;;
14778;SDS011;7481;53.750;10.570;2023-03-11T17:25:24;6.33;;;2.57;;
14778;SDS011;7481;53.750;10.570;2023-03-11T17:28:11;3.83;;;1.80;;
14778;SDS011;7481;53.750;10.570;2023-03-11T17:30:59;3.13;;;2.10;;
14778;SDS011;7481;53.750;10.570;2023-03-11T17:33:47;5.40;;;2.00;;
14778;SDS011;7481;53.750;10.570;2023-03-11T17:36:34;7.13;;;2.87;;
14778;SDS011;7481;53.750;10.570;2023-03-11T17:39:22;2.40;;;2.03;;
14778;SDS011;7481;53.750;10.570;2023-03-11T17:42:10;6.17;;;2.40;;
14778;SDS011;7481;53.750;10.570;2023-03-11T17:44:57;4.53;;;2.10;;
14778;SDS011;7481;53.750;10.570;2023-03-11T17:47:45;5.67;;;2.53;;
14778;SDS011;7481;53.750;10.570;2023-03-11T17:50:35;3.57;;;2.27;;
14778;SDS011;7481;53.750;10.570;2023-03-11T17:53:24;3.57;;;1.90;;
14778;SDS011;7481;53.750;10.570;2023-03-11T17:56:12;4.50;;;2.50;;
14778;SDS011;7481;53.750;10.570;2023-03-11T17:59:00;6.30;;;2.47;;
14778;SDS011;7481;53.750;10.570;2023-03-11T18:01:47;5.83;;;2.50;;
14778;SDS011;7481;53.750;10.570;2023-03-11T18:04:35;3.50;;;2.43;;
14778;SDS011;7481;53.750;10.570;2023-03-11T18:07:24;4.10;;;2.73;;
14778;SDS011;7481;53.750;10.570;2023-03-11T18:10:12;6.67;;;2.73;;
14778;SDS011;7481;53.750;10.570;2023-03-11T18:13:00;6.83;;;2.67;;
14778;SDS011;7481;53.750;10.570;2023-03-11T18:15:55;7.63;;;2.90;;
14778;SDS011;7481;53.750;10.570;2023-03-11T18:18:42;4.60;;;2.83;;
14778;SDS011;7481;53.750;10.570;2023-03-11T18:21:30;5.10;;;2.90;;
14778;SDS011;7481;53.750;10.570;2023-03-11T18:24:17;6.13;;;3.03;;